createdAt,value
2023-05-14T00:00:33.654Z,12.70
2023-05-14T00:01:36.363Z,12.69
2023-05-14T00:02:38.749Z,12.68
2023-05-14T00:03:41.390Z,12.68
2023-05-14T00:04:43.830Z,12.67
2023-05-14T00:05:46.092Z,12.67
2023-05-14T00:06:48.355Z,12.64
2023-05-14T00:07:50.762Z,12.66
2023-05-14T00:08:53.027Z,12.64
2023-05-14T00:09:55.241Z,12.66
2023-05-14T00:10:57.480Z,12.65
2023-05-14T00:11:59.762Z,12.65
2023-05-14T00:13:02.068Z,12.64
2023-05-14T00:14:04.338Z,12.65
2023-05-14T00:15:07.391Z,12.65
2023-05-14T00:16:09.754Z,12.64
2023-05-14T00:17:12.029Z,12.63
2023-05-14T00:18:14.429Z,12.63
2023-05-14T00:19:16.737Z,12.63
2023-05-14T00:20:19.080Z,12.62
2023-05-14T00:21:21.630Z,12.61
2023-05-14T00:22:24.017Z,12.60
2023-05-14T00:23:26.262Z,12.61
2023-05-14T00:24:28.522Z,12.61
2023-05-14T00:25:30.886Z,12.61
2023-05-14T00:26:33.145Z,12.59
2023-05-14T00:27:36.301Z,12.61
2023-05-14T00:28:38.547Z,12.59
2023-05-14T00:29:40.928Z,12.59
2023-05-14T00:30:43.192Z,12.59
2023-05-14T00:31:45.667Z,12.58
2023-05-14T00:32:48.139Z,12.58
2023-05-14T00:33:50.431Z,12.57
2023-05-14T00:34:52.688Z,12.58
2023-05-14T00:35:54.922Z,12.58
2023-05-14T00:36:57.204Z,12.56
2023-05-14T00:37:59.464Z,12.56
2023-05-14T00:39:01.741Z,12.55
2023-05-14T00:40:04.562Z,12.55
2023-05-14T00:41:06.836Z,12.54
2023-05-14T00:42:09.150Z,12.55
2023-05-14T00:43:12.588Z,12.54
2023-05-14T00:44:14.875Z,12.53
2023-05-14T00:45:17.102Z,12.53
2023-05-14T00:46:20.123Z,12.53
2023-05-14T00:47:22.618Z,12.53
2023-05-14T00:48:25.817Z,12.52
2023-05-14T00:49:28.844Z,12.53
2023-05-14T00:50:31.246Z,12.51
2023-05-14T00:51:33.640Z,12.50
2023-05-14T00:52:37.678Z,12.49
2023-05-14T00:53:40.346Z,12.48
2023-05-14T00:54:42.992Z,12.47
2023-05-14T00:55:46.961Z,12.46
2023-05-14T00:56:49.496Z,12.46
2023-05-14T00:57:54.851Z,12.46
2023-05-14T00:58:57.182Z,12.46
2023-05-14T00:59:59.744Z,12.44
2023-05-14T01:01:02.548Z,12.45
2023-05-14T01:02:04.950Z,12.46
2023-05-14T01:03:08.772Z,12.45
2023-05-14T01:04:12.650Z,12.45
2023-05-14T01:05:15.125Z,12.45
2023-05-14T01:06:34.906Z,12.45
2023-05-14T01:07:49.432Z,12.46
2023-05-14T01:08:57.387Z,12.45
2023-05-14T01:10:06.295Z,12.45
2023-05-14T01:11:17.540Z,12.46
2023-05-14T01:12:24.940Z,12.44
2023-05-14T01:13:30.420Z,12.44
2023-05-14T01:14:55.683Z,12.43
2023-05-14T01:16:00.066Z,12.43
2023-05-14T01:17:04.887Z,12.43
2023-05-14T01:18:11.452Z,12.42
2023-05-14T01:19:27.138Z,12.41
2023-05-14T01:20:29.406Z,12.40
2023-05-14T01:21:41.128Z,12.41
2023-05-14T01:22:43.367Z,12.41
2023-05-14T01:23:45.604Z,12.39
2023-05-14T01:24:48.147Z,12.40
2023-05-14T01:25:50.559Z,12.40
2023-05-14T01:26:55.015Z,12.40
2023-05-14T01:28:13.255Z,12.40
2023-05-14T01:29:28.662Z,12.38
2023-05-14T01:30:43.502Z,12.38
2023-05-14T01:31:48.394Z,12.37
2023-05-14T01:32:56.561Z,12.37
2023-05-14T01:34:00.479Z,12.38
2023-05-14T01:35:04.074Z,12.36
2023-05-14T01:36:07.007Z,12.35
2023-05-14T01:37:10.504Z,12.35
2023-05-14T01:38:15.195Z,12.34
2023-05-14T01:39:19.054Z,12.33
2023-05-14T01:40:21.772Z,12.33
2023-05-14T01:41:25.604Z,12.33
2023-05-14T01:42:28.754Z,12.32
2023-05-14T01:43:31.996Z,12.33
2023-05-14T01:44:34.781Z,12.31
2023-05-14T01:45:37.470Z,12.32
2023-05-14T01:46:39.794Z,12.30
2023-05-14T01:47:42.228Z,12.30
2023-05-14T01:48:44.535Z,12.30
2023-05-14T01:49:46.829Z,12.29
2023-05-14T01:50:49.138Z,12.29
2023-05-14T01:51:51.506Z,12.28
2023-05-14T01:52:56.839Z,12.26
2023-05-14T01:53:59.293Z,12.27
2023-05-14T01:55:01.670Z,12.26
2023-05-14T01:56:04.178Z,12.25
2023-05-14T01:57:06.445Z,12.25
2023-05-14T01:58:08.690Z,12.24
2023-05-14T01:59:10.901Z,12.24
2023-05-14T02:00:13.941Z,12.23
2023-05-14T02:01:16.231Z,12.22
2023-05-14T02:02:18.597Z,12.22
2023-05-14T02:03:20.880Z,12.23
2023-05-14T02:04:23.942Z,12.23
2023-05-14T02:05:26.535Z,12.22
2023-05-14T02:06:30.002Z,12.22
2023-05-14T02:07:32.330Z,12.22
2023-05-14T02:08:34.648Z,12.23
2023-05-14T02:09:36.946Z,12.22
2023-05-14T02:10:39.229Z,12.22
2023-05-14T02:11:41.526Z,12.22
2023-05-14T02:12:43.752Z,12.22
2023-05-14T02:13:46.067Z,12.21
2023-05-14T02:14:48.342Z,12.21
2023-05-14T02:15:50.690Z,12.21
2023-05-14T02:16:53.229Z,12.20
2023-05-14T02:17:55.564Z,12.20
2023-05-14T02:18:57.833Z,12.21
2023-05-14T02:20:00.214Z,12.21
2023-05-14T02:21:02.486Z,12.18
2023-05-14T02:22:04.879Z,12.19
2023-05-14T02:23:07.664Z,12.18
2023-05-14T02:24:09.876Z,12.18
2023-05-14T02:25:12.754Z,12.17
2023-05-14T02:26:14.982Z,12.16
2023-05-14T02:27:17.263Z,12.15
2023-05-14T02:28:19.542Z,12.15
2023-05-14T02:29:21.861Z,12.14
2023-05-14T02:30:24.346Z,12.13
2023-05-14T02:31:26.936Z,12.13
2023-05-14T02:32:29.583Z,12.11
2023-05-14T02:33:32.082Z,12.11
2023-05-14T02:34:34.786Z,12.09
2023-05-14T02:35:37.672Z,12.08
2023-05-14T02:36:40.455Z,12.08
2023-05-14T02:37:42.682Z,12.07
2023-05-14T02:38:44.988Z,12.05
2023-05-14T02:39:47.262Z,12.05
2023-05-14T02:40:51.338Z,12.04
2023-05-14T02:41:53.613Z,12.02
2023-05-14T02:42:56.140Z,12.01
2023-05-14T02:43:58.464Z,12.00
2023-05-14T02:45:00.903Z,11.99
2023-05-14T02:46:03.292Z,11.98
2023-05-14T02:47:05.982Z,11.96
2023-05-14T02:48:08.846Z,11.95
2023-05-14T02:49:11.122Z,11.94
2023-05-14T02:50:13.360Z,11.93
2023-05-14T02:51:16.542Z,11.91
2023-05-14T02:52:18.759Z,11.90
2023-05-14T02:53:21.047Z,11.90
2023-05-14T02:54:23.408Z,11.87
2023-05-14T02:55:26.706Z,11.87
2023-05-14T02:56:29.020Z,11.85
2023-05-14T02:57:31.256Z,11.83
2023-05-14T02:58:33.772Z,11.82
2023-05-14T02:59:36.456Z,11.81
2023-05-14T03:00:39.193Z,11.79
2023-05-14T03:01:41.995Z,11.77
2023-05-14T03:02:44.989Z,11.77
2023-05-14T03:03:47.629Z,11.75
2023-05-14T03:04:50.795Z,11.74
2023-05-14T03:05:53.236Z,11.73
2023-05-14T03:06:55.535Z,11.71
2023-05-14T03:07:58.393Z,11.70
2023-05-14T03:09:00.740Z,11.68
2023-05-14T03:10:03.325Z,11.66
2023-05-14T03:11:07.024Z,11.64
2023-05-14T03:12:09.333Z,11.64
2023-05-14T03:13:11.768Z,11.60
2023-05-14T03:14:13.985Z,11.58
2023-05-14T03:15:16.387Z,11.56
2023-05-14T03:16:18.663Z,11.55
2023-05-14T03:17:20.975Z,11.54
2023-05-14T03:18:23.593Z,11.50
2023-05-14T03:19:26.036Z,11.48
2023-05-14T03:20:28.331Z,11.46
2023-05-14T03:21:31.455Z,11.44
2023-05-14T03:22:33.736Z,11.41
2023-05-14T03:23:36.179Z,11.39
2023-05-14T03:24:40.464Z,11.37
2023-05-14T03:25:42.765Z,11.35
2023-05-14T03:26:45.031Z,11.33
2023-05-14T03:27:47.415Z,11.32
2023-05-14T03:28:50.949Z,11.30
2023-05-14T03:29:53.171Z,11.28
2023-05-14T03:30:55.533Z,11.26
2023-05-14T03:31:57.904Z,11.24
2023-05-14T03:33:00.463Z,11.24
2023-05-14T03:34:02.949Z,11.22
2023-05-14T03:35:05.774Z,11.21
2023-05-14T03:36:08.209Z,11.19
2023-05-14T03:37:11.307Z,11.17
2023-05-14T03:38:13.585Z,11.16
2023-05-14T03:39:19.818Z,11.15
2023-05-14T03:40:22.243Z,11.12
2023-05-14T03:41:26.382Z,11.10
2023-05-14T03:42:28.675Z,11.10
2023-05-14T03:43:30.978Z,11.10
2023-05-14T03:44:33.261Z,11.09
2023-05-14T03:45:35.666Z,11.08
2023-05-14T03:46:38.277Z,11.09
2023-05-14T03:47:41.178Z,11.08
2023-05-14T03:48:43.630Z,11.07
2023-05-14T03:49:45.943Z,11.06
2023-05-14T03:50:49.920Z,11.07
2023-05-14T03:51:52.200Z,11.05
2023-05-14T03:52:55.189Z,11.04
2023-05-14T03:53:58.503Z,11.03
2023-05-14T03:55:00.851Z,11.02
2023-05-14T03:56:03.143Z,11.02
2023-05-14T03:57:05.739Z,11.00
2023-05-14T03:58:13.820Z,11.00
2023-05-14T03:59:16.185Z,10.99
2023-05-14T04:00:18.711Z,10.99
2023-05-14T04:01:21.003Z,10.98
2023-05-14T04:02:23.581Z,10.97
2023-05-14T04:03:26.052Z,10.97
2023-05-14T04:04:28.814Z,10.96
2023-05-14T04:05:31.238Z,10.97
2023-05-14T04:06:34.078Z,10.97
2023-05-14T04:07:37.577Z,10.98
2023-05-14T04:08:39.818Z,10.96
2023-05-14T04:09:42.056Z,10.96
2023-05-14T04:10:44.304Z,10.97
2023-05-14T04:11:46.573Z,10.97
2023-05-14T04:12:48.845Z,10.98
2023-05-14T04:13:51.164Z,10.98
2023-05-14T04:14:53.440Z,10.97
2023-05-14T04:15:55.834Z,10.97
2023-05-14T04:17:00.349Z,10.98
2023-05-14T04:18:02.901Z,10.98
2023-05-14T04:19:06.060Z,10.99
2023-05-14T04:20:08.870Z,11.01
2023-05-14T04:21:11.147Z,11.03
2023-05-14T04:22:13.444Z,11.04
2023-05-14T04:23:15.679Z,11.06
2023-05-14T04:24:17.899Z,11.10
2023-05-14T04:25:20.267Z,11.12
2023-05-14T04:26:22.514Z,11.14
2023-05-14T04:27:24.824Z,11.17
2023-05-14T04:28:27.131Z,11.19
2023-05-14T04:29:29.433Z,11.25
2023-05-14T04:30:31.693Z,11.27
2023-05-14T04:31:34.002Z,11.31
2023-05-14T04:32:36.816Z,11.36
2023-05-14T04:33:40.062Z,11.41
2023-05-14T04:34:42.571Z,11.46
2023-05-14T04:35:45.765Z,11.51
2023-05-14T04:36:48.093Z,11.56
2023-05-14T04:37:50.641Z,11.63
2023-05-14T04:38:53.008Z,11.68
2023-05-14T04:39:55.287Z,11.76
2023-05-14T04:40:58.495Z,11.82
2023-05-14T04:42:01.130Z,11.88
2023-05-14T04:43:03.459Z,11.95
2023-05-14T04:44:05.953Z,12.01
2023-05-14T04:45:09.089Z,12.09
2023-05-14T04:46:11.774Z,12.16
2023-05-14T04:47:14.213Z,12.23
2023-05-14T04:48:16.696Z,12.32
2023-05-14T04:49:18.923Z,12.39
2023-05-14T04:50:21.467Z,12.46
2023-05-14T04:51:24.421Z,12.55
2023-05-14T04:52:26.721Z,12.62
2023-05-14T04:53:28.963Z,12.69
2023-05-14T04:54:31.200Z,12.77
2023-05-14T04:55:33.537Z,12.84
2023-05-14T04:56:35.850Z,12.92
2023-05-14T04:57:38.099Z,13.01
2023-05-14T04:58:40.520Z,13.08
2023-05-14T04:59:42.933Z,13.17
2023-05-14T05:00:45.148Z,13.26
2023-05-14T05:01:47.584Z,13.34
2023-05-14T05:02:50.026Z,13.42
2023-05-14T05:03:52.737Z,13.50
2023-05-14T05:04:55.062Z,13.58
2023-05-14T05:05:57.372Z,13.66
2023-05-14T05:06:59.691Z,13.74
2023-05-14T05:08:02.010Z,13.82
2023-05-14T05:09:04.734Z,13.91
2023-05-14T05:10:07.873Z,13.98
2023-05-14T05:11:10.123Z,14.07
2023-05-14T05:12:12.449Z,14.12
2023-05-14T05:13:15.567Z,14.20
2023-05-14T05:14:17.860Z,14.29
2023-05-14T05:15:20.084Z,14.37
2023-05-14T05:16:22.384Z,14.44
2023-05-14T05:17:25.513Z,14.50
2023-05-14T05:18:27.841Z,14.60
2023-05-14T05:19:42.510Z,14.69
2023-05-14T05:20:45.921Z,14.76
2023-05-14T05:21:48.408Z,14.84
2023-05-14T05:22:50.865Z,14.91
2023-05-14T05:23:53.143Z,14.99
2023-05-14T05:24:55.758Z,15.06
2023-05-14T05:25:58.030Z,15.14
2023-05-14T05:27:00.351Z,15.21
2023-05-14T05:28:02.665Z,15.29
2023-05-14T05:29:05.759Z,15.37
2023-05-14T05:30:08.558Z,15.46
2023-05-14T05:31:11.093Z,15.55
2023-05-14T05:32:13.742Z,15.62
2023-05-14T05:33:16.217Z,15.69
2023-05-14T05:34:18.593Z,15.77
2023-05-14T05:35:20.910Z,15.87
2023-05-14T05:36:23.267Z,15.97
2023-05-14T05:37:25.647Z,16.05
2023-05-14T05:38:27.925Z,16.13
2023-05-14T05:39:35.210Z,16.23
2023-05-14T05:40:37.784Z,16.30
2023-05-14T05:41:40.876Z,16.39
2023-05-14T05:42:43.161Z,16.49
2023-05-14T05:43:45.456Z,16.56
2023-05-14T05:44:47.682Z,16.66
2023-05-14T05:45:49.952Z,16.74
2023-05-14T05:46:52.177Z,16.84
2023-05-14T05:47:54.529Z,16.93
2023-05-14T05:48:56.766Z,17.03
2023-05-14T05:49:59.003Z,17.13
2023-05-14T05:51:01.507Z,17.23
2023-05-14T05:52:04.491Z,17.34
2023-05-14T05:53:06.950Z,17.42
2023-05-14T05:54:09.204Z,17.53
2023-05-14T05:55:11.452Z,17.61
2023-05-14T05:56:13.801Z,17.70
2023-05-14T05:57:16.021Z,17.81
2023-05-14T05:58:19.276Z,17.88
2023-05-14T05:59:21.803Z,17.99
2023-05-14T06:00:24.923Z,18.05
2023-05-14T06:01:28.294Z,18.12
2023-05-14T06:02:30.803Z,18.21
2023-05-14T06:03:33.220Z,18.31
2023-05-14T06:04:35.549Z,18.40
2023-05-14T06:05:37.800Z,18.49
2023-05-14T06:06:40.198Z,18.60
2023-05-14T06:07:42.457Z,18.68
2023-05-14T06:08:44.720Z,18.78
2023-05-14T06:09:46.979Z,18.87
2023-05-14T06:10:49.229Z,19.00
2023-05-14T06:11:51.482Z,19.07
2023-05-14T06:12:53.772Z,19.18
2023-05-14T06:13:56.068Z,19.28
2023-05-14T06:14:58.332Z,19.38
2023-05-14T06:16:00.699Z,19.49
2023-05-14T06:17:02.973Z,19.57
2023-05-14T06:18:05.797Z,19.66
2023-05-14T06:19:08.720Z,19.74
2023-05-14T06:20:11.490Z,19.84
2023-05-14T06:21:13.744Z,19.96
2023-05-14T06:22:16.731Z,20.04
2023-05-14T06:23:18.998Z,20.14
2023-05-14T06:24:21.442Z,20.22
2023-05-14T06:25:23.861Z,20.34
2023-05-14T06:26:26.558Z,20.41
2023-05-14T06:27:28.866Z,20.51
2023-05-14T06:28:31.358Z,20.61
2023-05-14T06:29:34.717Z,20.71
2023-05-14T06:30:37.096Z,20.81
2023-05-14T06:31:39.446Z,20.91
2023-05-14T06:32:42.126Z,21.00
2023-05-14T06:33:45.343Z,21.12
2023-05-14T06:34:47.833Z,21.22
2023-05-14T06:35:50.101Z,21.33
2023-05-14T06:36:52.393Z,21.44
2023-05-14T06:37:54.685Z,21.54
2023-05-14T06:38:57.021Z,21.63
2023-05-14T06:39:59.411Z,21.72
2023-05-14T06:41:01.681Z,21.81
2023-05-14T06:42:04.450Z,21.90
2023-05-14T06:43:06.950Z,21.99
2023-05-14T06:44:09.542Z,22.06
2023-05-14T06:45:11.927Z,22.15
2023-05-14T06:46:14.186Z,22.26
2023-05-14T06:47:16.425Z,22.31
2023-05-14T06:48:19.921Z,22.37
2023-05-14T06:49:22.384Z,22.43
2023-05-14T06:50:24.989Z,22.47
2023-05-14T06:51:27.527Z,22.53
2023-05-14T06:52:29.845Z,22.60
2023-05-14T06:53:32.303Z,22.65
2023-05-14T06:54:34.550Z,22.71
2023-05-14T06:55:37.421Z,22.76
2023-05-14T06:56:39.750Z,22.82
2023-05-14T06:57:42.053Z,22.88
2023-05-14T06:58:44.367Z,22.96
2023-05-14T06:59:46.852Z,23.03
2023-05-14T07:00:49.122Z,23.11
2023-05-14T07:01:51.460Z,23.17
2023-05-14T07:02:53.737Z,23.26
2023-05-14T07:03:56.347Z,23.35
2023-05-14T07:04:58.583Z,23.44
2023-05-14T07:06:00.977Z,23.55
2023-05-14T07:07:03.328Z,23.64
2023-05-14T07:08:05.930Z,23.75
2023-05-14T07:09:08.171Z,23.85
2023-05-14T07:10:10.602Z,23.94
2023-05-14T07:11:16.437Z,24.02
2023-05-14T07:12:18.713Z,24.05
2023-05-14T07:13:21.042Z,24.12
2023-05-14T07:14:23.343Z,24.15
2023-05-14T07:15:25.874Z,24.20
2023-05-14T07:16:28.482Z,24.26
2023-05-14T07:17:30.958Z,24.34
2023-05-14T07:18:33.251Z,24.42
2023-05-14T07:19:35.608Z,24.48
2023-05-14T07:20:37.855Z,24.55
2023-05-14T07:21:40.273Z,24.62
2023-05-14T07:22:42.535Z,24.66
2023-05-14T07:23:44.852Z,24.74
2023-05-14T07:24:47.066Z,24.79
2023-05-14T07:25:49.330Z,24.85
2023-05-14T07:26:51.639Z,24.91
2023-05-14T07:27:53.884Z,24.96
2023-05-14T07:28:56.510Z,25.01
2023-05-14T07:29:58.720Z,25.08
2023-05-14T07:31:01.071Z,25.11
2023-05-14T07:32:03.588Z,25.17
2023-05-14T07:33:05.957Z,25.23
2023-05-14T07:34:09.070Z,25.29
2023-05-14T07:35:11.983Z,25.33
2023-05-14T07:36:14.474Z,25.37
2023-05-14T07:37:17.029Z,25.39
2023-05-14T07:38:19.779Z,25.43
2023-05-14T07:39:22.069Z,25.45
2023-05-14T07:40:25.534Z,25.47
2023-05-14T07:41:28.098Z,25.49
2023-05-14T07:42:36.664Z,25.52
2023-05-14T07:43:40.872Z,25.56
2023-05-14T07:44:43.412Z,25.60
2023-05-14T07:45:45.836Z,25.61
2023-05-14T07:46:48.184Z,25.60
2023-05-14T07:47:52.311Z,25.62
2023-05-14T07:48:56.615Z,25.65
2023-05-14T07:49:59.458Z,25.70
2023-05-14T07:51:01.798Z,25.72
2023-05-14T07:52:04.431Z,25.73
2023-05-14T07:53:06.925Z,25.73
2023-05-14T07:54:09.429Z,25.73
2023-05-14T07:55:13.551Z,25.71
2023-05-14T07:56:16.249Z,25.71
2023-05-14T07:57:19.575Z,25.70
2023-05-14T07:58:22.860Z,25.74
2023-05-14T07:59:25.201Z,25.75
2023-05-14T08:00:27.830Z,25.72
2023-05-14T08:01:31.466Z,25.71
2023-05-14T08:02:34.058Z,25.70
2023-05-14T08:03:36.477Z,25.65
2023-05-14T08:04:39.932Z,25.64
2023-05-14T08:05:42.262Z,25.67
2023-05-14T08:06:44.507Z,25.66
2023-05-14T08:07:46.948Z,25.68
2023-05-14T08:08:49.317Z,25.68
2023-05-14T08:09:52.064Z,25.70
2023-05-14T08:10:54.563Z,25.69
2023-05-14T08:11:57.026Z,25.72
2023-05-14T08:12:59.440Z,25.73
2023-05-14T08:14:01.755Z,25.71
2023-05-14T08:15:04.678Z,25.74
2023-05-14T08:16:07.436Z,25.73
2023-05-14T08:17:09.953Z,25.76
2023-05-14T08:18:12.391Z,25.70
2023-05-14T08:19:16.538Z,25.68
2023-05-14T08:20:19.267Z,25.67
2023-05-14T08:21:23.007Z,25.66
2023-05-14T08:22:25.524Z,25.66
2023-05-14T08:23:27.843Z,25.64
2023-05-14T08:24:30.129Z,25.63
2023-05-14T08:25:32.547Z,25.64
2023-05-14T08:26:35.165Z,25.63
2023-05-14T08:27:37.480Z,25.62
2023-05-14T08:28:39.800Z,25.61
2023-05-14T08:29:42.340Z,25.62
2023-05-14T08:30:44.791Z,25.61
2023-05-14T08:31:47.376Z,25.59
2023-05-14T08:32:49.835Z,25.59
2023-05-14T08:33:52.741Z,25.57
2023-05-14T08:34:55.149Z,25.51
2023-05-14T08:36:00.679Z,25.51
2023-05-14T08:37:03.147Z,25.50
2023-05-14T08:38:05.832Z,25.47
2023-05-14T08:39:08.093Z,25.47
2023-05-14T08:40:10.954Z,25.45
2023-05-14T08:41:16.216Z,25.45
2023-05-14T08:42:22.005Z,25.44
2023-05-14T08:43:33.906Z,25.44
2023-05-14T08:44:50.367Z,25.41
2023-05-14T08:45:58.875Z,25.39
2023-05-14T08:47:02.619Z,25.35
2023-05-14T08:48:09.277Z,25.36
2023-05-14T08:49:41.164Z,25.37
2023-05-14T08:50:44.218Z,25.34
2023-05-14T08:51:48.744Z,25.35
2023-05-14T08:52:51.930Z,25.35
2023-05-14T08:53:54.378Z,25.31
2023-05-14T08:54:59.243Z,25.33
2023-05-14T08:56:02.229Z,25.32
2023-05-14T08:57:05.422Z,25.32
2023-05-14T08:58:07.774Z,25.29
2023-05-14T08:59:10.826Z,25.30
2023-05-14T09:00:15.828Z,25.29
2023-05-14T09:01:19.123Z,25.29
2023-05-14T09:02:27.296Z,25.28
2023-05-14T09:03:31.257Z,25.30
2023-05-14T09:04:35.297Z,25.30
2023-05-14T09:05:37.791Z,25.33
2023-05-14T09:06:41.764Z,25.34
2023-05-14T09:07:44.082Z,25.31
2023-05-14T09:08:46.601Z,25.31
2023-05-14T09:09:48.979Z,25.32
2023-05-14T09:10:51.868Z,25.33
2023-05-14T09:11:54.442Z,25.33
2023-05-14T09:12:56.822Z,25.29
2023-05-14T09:13:59.109Z,25.27
2023-05-14T09:15:01.349Z,25.28
2023-05-14T09:16:03.823Z,25.26
2023-05-14T09:17:06.089Z,25.26
2023-05-14T09:18:08.670Z,25.28
2023-05-14T09:19:13.066Z,25.31
2023-05-14T09:20:16.351Z,25.27
2023-05-14T09:21:19.055Z,25.26
2023-05-14T09:22:21.653Z,25.22
2023-05-14T09:23:26.898Z,25.22
2023-05-14T09:24:31.868Z,25.23
2023-05-14T09:25:34.216Z,25.20
2023-05-14T09:26:36.709Z,25.20
2023-05-14T09:27:39.393Z,25.20
2023-05-14T09:28:43.798Z,25.19
2023-05-14T09:29:46.295Z,25.21
2023-05-14T09:30:54.826Z,25.24
2023-05-14T09:31:58.538Z,25.24
2023-05-14T09:33:01.117Z,25.25
2023-05-14T09:34:04.677Z,25.26
2023-05-14T09:35:12.179Z,25.26
2023-05-14T09:36:14.516Z,25.27
2023-05-14T09:37:16.904Z,25.21
2023-05-14T09:38:19.279Z,25.19
2023-05-14T09:39:23.897Z,25.21
2023-05-14T09:40:26.383Z,25.16
2023-05-14T09:41:31.745Z,25.15
2023-05-14T09:42:34.419Z,25.12
2023-05-14T09:43:36.861Z,25.10
2023-05-14T09:44:39.569Z,25.07
2023-05-14T09:45:41.981Z,25.05
2023-05-14T09:46:45.352Z,25.02
2023-05-14T09:47:47.760Z,24.96
2023-05-14T09:48:50.317Z,24.91
2023-05-14T09:49:52.970Z,24.85
2023-05-14T09:50:55.541Z,24.83
2023-05-14T09:51:58.170Z,24.78
2023-05-14T09:53:00.660Z,24.68
2023-05-14T09:54:04.853Z,24.65
2023-05-14T09:55:09.060Z,24.58
2023-05-14T09:56:11.437Z,24.51
2023-05-14T09:57:13.900Z,24.44
2023-05-14T09:58:16.367Z,24.39
2023-05-14T09:59:18.774Z,24.32
2023-05-14T10:00:22.182Z,24.28
2023-05-14T10:01:25.040Z,24.22
2023-05-14T10:02:37.941Z,24.10
2023-05-14T10:03:41.239Z,24.04
2023-05-14T10:04:45.264Z,23.94
2023-05-14T10:05:49.548Z,23.88
2023-05-14T10:06:53.820Z,23.79
2023-05-14T10:07:59.504Z,23.73
2023-05-14T10:09:04.450Z,23.65
2023-05-14T10:10:12.515Z,23.59
2023-05-14T10:11:25.836Z,23.52
2023-05-14T10:12:32.713Z,23.43
2023-05-14T10:13:41.882Z,23.36
2023-05-14T10:14:50.179Z,23.31
2023-05-14T10:16:05.679Z,23.28
2023-05-14T10:17:18.413Z,23.26
2023-05-14T10:18:23.592Z,23.21
2023-05-14T10:19:26.705Z,23.16
2023-05-14T10:20:30.804Z,23.13
2023-05-14T10:21:37.024Z,23.12
2023-05-14T10:22:39.670Z,23.11
2023-05-14T10:23:43.355Z,23.09
2023-05-14T10:24:47.572Z,23.09
2023-05-14T10:25:50.197Z,23.09
2023-05-14T10:26:52.956Z,23.08
2023-05-14T10:27:55.606Z,23.08
2023-05-14T10:28:58.761Z,23.11
2023-05-14T10:30:05.789Z,23.13
2023-05-14T10:31:10.380Z,23.16
2023-05-14T10:32:15.116Z,23.19
2023-05-14T10:33:18.943Z,23.19
2023-05-14T10:34:41.785Z,23.21
2023-05-14T10:36:02.254Z,23.22
2023-05-14T10:37:07.287Z,23.23
2023-05-14T10:38:09.571Z,23.24
2023-05-14T10:39:12.446Z,23.24
2023-05-14T10:40:14.862Z,23.25
2023-05-14T10:41:21.718Z,23.24
2023-05-14T10:42:29.182Z,23.21
2023-05-14T10:43:37.326Z,23.17
2023-05-14T10:45:02.420Z,23.17
2023-05-14T10:46:05.516Z,23.13
2023-05-14T10:47:08.146Z,23.13
2023-05-14T10:48:10.880Z,23.11
2023-05-14T10:49:13.528Z,23.10
2023-05-14T10:50:16.380Z,23.10
2023-05-14T10:51:21.141Z,23.08
2023-05-14T10:52:24.712Z,23.05
2023-05-14T10:53:37.413Z,23.04
2023-05-14T10:54:39.703Z,23.03
2023-05-14T10:55:43.401Z,23.03
2023-05-14T10:56:50.509Z,23.03
2023-05-14T10:57:52.770Z,23.02
2023-05-14T10:58:58.627Z,23.01
2023-05-14T11:00:01.597Z,23.02
2023-05-14T11:01:06.578Z,23.00
2023-05-14T11:02:24.449Z,23.00
2023-05-14T11:03:31.680Z,22.97
2023-05-14T11:04:34.306Z,22.94
2023-05-14T11:05:37.762Z,22.91
2023-05-14T11:06:40.270Z,22.88
2023-05-14T11:07:45.369Z,22.85
2023-05-14T11:08:48.169Z,22.81
2023-05-14T11:09:51.512Z,22.79
2023-05-14T11:10:55.290Z,22.78
2023-05-14T11:11:59.816Z,22.75
2023-05-14T11:13:02.690Z,22.71
2023-05-14T11:14:05.113Z,22.69
2023-05-14T11:15:10.189Z,22.65
2023-05-14T11:16:22.520Z,22.62
2023-05-14T11:17:30.861Z,22.58
2023-05-14T11:18:37.154Z,22.56
2023-05-14T11:19:39.731Z,22.51
2023-05-14T11:20:42.135Z,22.47
2023-05-14T11:21:44.442Z,22.43
2023-05-14T11:22:48.877Z,22.37
2023-05-14T11:23:51.242Z,22.32
2023-05-14T11:24:54.052Z,22.27
2023-05-14T11:25:57.123Z,22.21
2023-05-14T11:27:00.547Z,22.15
2023-05-14T11:28:03.302Z,22.12
2023-05-14T11:29:06.572Z,22.09
2023-05-14T11:30:21.730Z,22.06
2023-05-14T11:31:25.676Z,22.01
2023-05-14T11:32:28.406Z,21.96
2023-05-14T11:33:30.789Z,21.94
2023-05-14T11:34:35.087Z,21.89
2023-05-14T11:35:38.494Z,21.84
2023-05-14T11:36:40.849Z,21.83
2023-05-14T11:37:43.981Z,21.81
2023-05-14T11:38:49.160Z,21.79
2023-05-14T11:39:53.642Z,21.78
2023-05-14T11:40:57.004Z,21.77
2023-05-14T11:42:02.686Z,21.75
2023-05-14T11:43:05.337Z,21.73
2023-05-14T11:44:09.147Z,21.73
2023-05-14T11:45:13.481Z,21.71
2023-05-14T11:46:19.092Z,21.72
2023-05-14T11:47:23.919Z,21.72
2023-05-14T11:48:26.268Z,21.72
2023-05-14T11:49:32.576Z,21.71
2023-05-14T11:50:36.808Z,21.72
2023-05-14T11:51:39.086Z,21.74
2023-05-14T11:52:41.899Z,21.74
2023-05-14T11:53:45.390Z,21.76
2023-05-14T11:54:49.966Z,21.77
2023-05-14T11:55:54.621Z,21.79
2023-05-14T11:56:57.889Z,21.81
2023-05-14T11:58:00.156Z,21.83
2023-05-14T11:59:02.416Z,21.83
2023-05-14T12:00:16.865Z,21.85
2023-05-14T12:01:19.464Z,21.86
2023-05-14T12:02:23.088Z,21.87
2023-05-14T12:03:26.987Z,21.89
2023-05-14T12:04:30.273Z,21.90
2023-05-14T12:05:32.725Z,21.92
2023-05-14T12:06:35.056Z,21.94
2023-05-14T12:07:37.685Z,21.96
2023-05-14T12:08:40.106Z,21.96
2023-05-14T12:09:51.373Z,21.98
2023-05-14T12:10:54.759Z,22.00
2023-05-14T12:11:57.109Z,22.00
2023-05-14T12:13:01.891Z,22.03
2023-05-14T12:14:12.501Z,22.05
2023-05-14T12:15:20.736Z,22.09
2023-05-14T12:16:23.075Z,22.06
2023-05-14T12:17:25.478Z,22.06
2023-05-14T12:18:29.627Z,22.07
2023-05-14T12:19:32.059Z,22.07
2023-05-14T12:20:34.413Z,22.09
2023-05-14T12:21:36.854Z,22.10
2023-05-14T12:22:39.522Z,22.08
2023-05-14T12:23:41.794Z,22.12
2023-05-14T12:24:53.942Z,22.12
2023-05-14T12:26:01.137Z,22.14
2023-05-14T12:27:03.849Z,22.13
2023-05-14T12:28:19.424Z,22.14
2023-05-14T12:29:22.300Z,22.14
2023-05-14T12:30:24.772Z,22.16
2023-05-14T12:31:31.218Z,22.17
2023-05-14T12:32:39.505Z,22.16
2023-05-14T12:33:41.791Z,22.15
2023-05-14T12:34:44.041Z,22.16
2023-05-14T12:35:47.288Z,22.14
2023-05-14T12:36:50.013Z,22.11
2023-05-14T12:37:52.297Z,22.13
2023-05-14T12:39:01.892Z,22.13
2023-05-14T12:40:09.419Z,22.13
2023-05-14T12:41:11.942Z,22.14
2023-05-14T12:42:17.282Z,22.13
2023-05-14T12:43:20.195Z,22.13
2023-05-14T12:44:22.890Z,22.13
2023-05-14T12:45:25.391Z,22.15
2023-05-14T12:46:28.157Z,22.14
2023-05-14T12:47:30.402Z,22.14
2023-05-14T12:48:32.728Z,22.14
2023-05-14T12:49:35.008Z,22.15
2023-05-14T12:50:37.405Z,22.19
2023-05-14T12:51:39.643Z,22.21
2023-05-14T12:52:41.940Z,22.21
2023-05-14T12:53:44.265Z,22.24
2023-05-14T12:54:46.570Z,22.26
2023-05-14T12:55:49.887Z,22.29
2023-05-14T12:56:52.241Z,22.30
2023-05-14T12:57:54.773Z,22.31
2023-05-14T12:58:57.086Z,22.34
2023-05-14T12:59:59.308Z,22.35
2023-05-14T13:01:01.632Z,22.34
2023-05-14T13:02:04.076Z,22.35
2023-05-14T13:03:06.457Z,22.33
2023-05-14T13:04:12.633Z,22.33
2023-05-14T13:05:15.120Z,22.32
2023-05-14T13:06:17.452Z,22.32
2023-05-14T13:07:19.733Z,22.31
2023-05-14T13:08:25.135Z,22.30
2023-05-14T13:09:28.092Z,22.29
2023-05-14T13:10:30.406Z,22.28
2023-05-14T13:11:32.690Z,22.26
2023-05-14T13:12:34.964Z,22.26
2023-05-14T13:13:37.206Z,22.24
2023-05-14T13:14:39.424Z,22.24
2023-05-14T13:15:41.766Z,22.23
2023-05-14T13:16:44.162Z,22.25
2023-05-14T13:17:46.571Z,22.25
2023-05-14T13:18:48.942Z,22.21
2023-05-14T13:19:51.194Z,22.21
2023-05-14T13:20:54.372Z,22.19
2023-05-14T13:21:56.623Z,22.16
2023-05-14T13:22:58.860Z,22.15
2023-05-14T13:24:01.252Z,22.14
2023-05-14T13:25:03.642Z,22.11
2023-05-14T13:26:05.884Z,22.06
2023-05-14T13:27:08.112Z,22.04
2023-05-14T13:28:10.476Z,22.02
2023-05-14T13:29:12.966Z,21.97
2023-05-14T13:30:15.699Z,21.95
2023-05-14T13:31:17.956Z,21.91
2023-05-14T13:32:20.262Z,21.89
2023-05-14T13:33:22.552Z,21.87
2023-05-14T13:34:25.158Z,21.86
2023-05-14T13:35:28.599Z,21.84
2023-05-14T13:36:32.399Z,21.81
2023-05-14T13:37:34.914Z,21.80